sensor_id;sensor_type;location;lat;lon;timestamp;temperature;humidity
10129;DHT22;5104;50.720;7.044;2023-12-07T00:01:52;1.50;99.90
10129;DHT22;5104;50.720;7.044;2023-12-07T00:04:19;1.60;99.90
10129;DHT22;5104;50.720;7.044;2023-12-07T00:06:46;1.70;99.90
10129;DHT22;5104;50.720;7.044;2023-12-07T00:09:13;1.70;99.90
10129;DHT22;5104;50.720;7.044;2023-12-07T00:11:41;1.80;99.90
10129;DHT22;5104;50.720;7.044;2023-12-07T00:14:08;1.90;99.90
10129;DHT22;5104;50.720;7.044;2023-12-07T00:16:35;1.90;99.90
10129;DHT22;5104;50.720;7.044;2023-12-07T00:19:01;1.90;99.90
10129;DHT22;5104;50.720;7.044;2023-12-07T00:21:28;1.90;99.90
10129;DHT22;5104;50.720;7.044;2023-12-07T00:23:55;1.90;99.90
10129;DHT22;5104;50.720;7.044;2023-12-07T00:26:22;1.90;99.90
10129;DHT22;5104;50.720;7.044;2023-12-07T00:28:50;1.90;99.90
10129;DHT22;5104;50.720;7.044;2023-12-07T00:31:17;1.90;99.90
10129;DHT22;5104;50.720;7.044;2023-12-07T00:33:45;1.90;99.90
10129;DHT22;5104;50.720;7.044;2023-12-07T00:36:12;1.90;99.90
10129;DHT22;5104;50.720;7.044;2023-12-07T00:38:39;1.90;99.90
10129;DHT22;5104;50.720;7.044;2023-12-07T00:41:06;2.00;99.90
10129;DHT22;5104;50.720;7.044;2023-12-07T00:43:33;2.00;99.90
10129;DHT22;5104;50.720;7.044;2023-12-07T00:46:01;2.10;99.90
10129;DHT22;5104;50.720;7.044;2023-12-07T00:48:28;2.10;99.90
10129;DHT22;5104;50.720;7.044;2023-12-07T00:50:55;2.20;99.90
10129;DHT22;5104;50.720;7.044;2023-12-07T00:53:22;2.10;99.90
10129;DHT22;5104;50.720;7.044;2023-12-07T00:55:49;2.20;99.90
10129;DHT22;5104;50.720;7.044;2023-12-07T00:58:16;2.20;99.90
10129;DHT22;5104;50.720;7.044;2023-12-07T01:00:43;2.30;99.90
10129;DHT22;5104;50.720;7.044;2023-12-07T01:03:11;2.30;99.90
10129;DHT22;5104;50.720;7.044;2023-12-07T01:05:38;2.40;99.90
10129;DHT22;5104;50.720;7.044;2023-12-07T01:08:05;2.30;99.90
10129;DHT22;5104;50.720;7.044;2023-12-07T01:10:31;2.40;99.90
10129;DHT22;5104;50.720;7.044;2023-12-07T01:12:58;2.50;99.90
10129;DHT22;5104;50.720;7.044;2023-12-07T01:15:25;2.50;99.90
10129;DHT22;5104;50.720;7.044;2023-12-07T01:17:52;2.50;99.90
10129;DHT22;5104;50.720;7.044;2023-12-07T01:20:20;2.50;99.90
10129;DHT22;5104;50.720;7.044;2023-12-07T01:22:47;2.50;99.90
10129;DHT22;5104;50.720;7.044;2023-12-07T01:25:15;2.50;99.90
10129;DHT22;5104;50.720;7.044;2023-12-07T01:27:47;2.40;99.90
10129;DHT22;5104;50.720;7.044;2023-12-07T01:30:14;2.40;99.90
10129;DHT22;5104;50.720;7.044;2023-12-07T01:32:42;2.30;99.90
10129;DHT22;5104;50.720;7.044;2023-12-07T01:35:09;2.10;99.90
10129;DHT22;5104;50.720;7.044;2023-12-07T01:37:37;2.00;99.90
10129;DHT22;5104;50.720;7.044;2023-12-07T01:40:06;1.90;99.90
10129;DHT22;5104;50.720;7.044;2023-12-07T01:42:36;1.80;99.90
10129;DHT22;5104;50.720;7.044;2023-12-07T01:45:04;1.70;99.90
10129;DHT22;5104;50.720;7.044;2023-12-07T01:47:32;1.60;99.90
10129;DHT22;5104;50.720;7.044;2023-12-07T01:50:00;1.50;99.90
10129;DHT22;5104;50.720;7.044;2023-12-07T01:52:31;1.60;99.90
10129;DHT22;5104;50.720;7.044;2023-12-07T01:54:59;1.60;99.90
10129;DHT22;5104;50.720;7.044;2023-12-07T01:57:27;1.70;99.90
10129;DHT22;5104;50.720;7.044;2023-12-07T01:59:54;1.70;99.90
10129;DHT22;5104;50.720;7.044;2023-12-07T02:02:21;1.80;99.90
10129;DHT22;5104;50.720;7.044;2023-12-07T02:04:49;1.80;99.90
10129;DHT22;5104;50.720;7.044;2023-12-07T02:07:17;1.70;99.90
10129;DHT22;5104;50.720;7.044;2023-12-07T02:09:44;1.70;99.90
10129;DHT22;5104;50.720;7.044;2023-12-07T02:12:13;1.50;99.90
10129;DHT22;5104;50.720;7.044;2023-12-07T02:14:40;1.50;99.90
10129;DHT22;5104;50.720;7.044;2023-12-07T02:17:13;1.50;99.90
10129;DHT22;5104;50.720;7.044;2023-12-07T02:19:57;1.30;99.90
10129;DHT22;5104;50.720;7.044;2023-12-07T02:22:29;1.20;99.90
10129;DHT22;5104;50.720;7.044;2023-12-07T02:25:06;1.20;99.90
10129;DHT22;5104;50.720;7.044;2023-12-07T02:27:37;1.10;99.90
10129;DHT22;5104;50.720;7.044;2023-12-07T02:30:05;1.00;99.90
10129;DHT22;5104;50.720;7.044;2023-12-07T02:32:32;1.00;99.90
10129;DHT22;5104;50.720;7.044;2023-12-07T02:34:59;1.10;99.90
10129;DHT22;5104;50.720;7.044;2023-12-07T02:37:28;1.00;99.90
10129;DHT22;5104;50.720;7.044;2023-12-07T02:39:56;1.00;99.90
10129;DHT22;5104;50.720;7.044;2023-12-07T02:42:24;1.00;99.90
10129;DHT22;5104;50.720;7.044;2023-12-07T02:44:53;1.10;99.90
10129;DHT22;5104;50.720;7.044;2023-12-07T02:47:21;1.20;99.90
10129;DHT22;5104;50.720;7.044;2023-12-07T02:49:48;1.30;99.90
10129;DHT22;5104;50.720;7.044;2023-12-07T02:52:15;1.40;99.90
10129;DHT22;5104;50.720;7.044;2023-12-07T02:54:42;1.40;99.90
10129;DHT22;5104;50.720;7.044;2023-12-07T02:57:09;1.40;99.90
10129;DHT22;5104;50.720;7.044;2023-12-07T02:59:36;1.50;99.90
10129;DHT22;5104;50.720;7.044;2023-12-07T03:02:05;1.50;99.90
10129;DHT22;5104;50.720;7.044;2023-12-07T03:04:32;1.60;99.90
10129;DHT22;5104;50.720;7.044;2023-12-07T03:06:59;1.70;99.90
10129;DHT22;5104;50.720;7.044;2023-12-07T03:09:26;1.70;99.90
10129;DHT22;5104;50.720;7.044;2023-12-07T03:11:53;1.60;99.90
10129;DHT22;5104;50.720;7.044;2023-12-07T03:14:22;1.50;99.90
10129;DHT22;5104;50.720;7.044;2023-12-07T03:16:49;1.40;99.90
10129;DHT22;5104;50.720;7.044;2023-12-07T03:19:17;1.40;99.90
10129;DHT22;5104;50.720;7.044;2023-12-07T03:21:44;1.30;99.90
10129;DHT22;5104;50.720;7.044;2023-12-07T03:24:11;1.30;99.90
10129;DHT22;5104;50.720;7.044;2023-12-07T03:26:38;1.20;99.90
10129;DHT22;5104;50.720;7.044;2023-12-07T03:29:06;1.20;99.90
10129;DHT22;5104;50.720;7.044;2023-12-07T03:31:33;1.20;99.90
10129;DHT22;5104;50.720;7.044;2023-12-07T03:34:00;1.10;99.90
10129;DHT22;5104;50.720;7.044;2023-12-07T03:36:29;1.10;99.90
10129;DHT22;5104;50.720;7.044;2023-12-07T03:38:56;1.10;99.90
10129;DHT22;5104;50.720;7.044;2023-12-07T03:41:22;1.10;99.90
10129;DHT22;5104;50.720;7.044;2023-12-07T03:43:49;1.10;99.90
10129;DHT22;5104;50.720;7.044;2023-12-07T03:46:17;1.10;99.90
10129;DHT22;5104;50.720;7.044;2023-12-07T03:48:44;1.20;99.90
10129;DHT22;5104;50.720;7.044;2023-12-07T03:51:13;1.20;99.90
10129;DHT22;5104;50.720;7.044;2023-12-07T03:53:43;1.30;99.90
10129;DHT22;5104;50.720;7.044;2023-12-07T03:56:10;1.40;99.90
10129;DHT22;5104;50.720;7.044;2023-12-07T03:58:37;1.40;99.90
10129;DHT22;5104;50.720;7.044;2023-12-07T04:01:04;1.50;99.90
10129;DHT22;5104;50.720;7.044;2023-12-07T04:03:32;1.50;99.90
10129;DHT22;5104;50.720;7.044;2023-12-07T04:05:59;1.50;99.90
10129;DHT22;5104;50.720;7.044;2023-12-07T04:08:26;1.50;99.90
10129;DHT22;5104;50.720;7.044;2023-12-07T04:10:54;1.60;99.90
10129;DHT22;5104;50.720;7.044;2023-12-07T04:13:21;1.70;99.90
10129;DHT22;5104;50.720;7.044;2023-12-07T04:15:49;1.70;99.90
10129;DHT22;5104;50.720;7.044;2023-12-07T04:18:16;1.80;99.90
10129;DHT22;5104;50.720;7.044;2023-12-07T04:20:43;1.80;99.90
10129;DHT22;5104;50.720;7.044;2023-12-07T04:23:10;1.90;99.90
10129;DHT22;5104;50.720;7.044;2023-12-07T04:25:37;1.80;99.90
10129;DHT22;5104;50.720;7.044;2023-12-07T04:28:05;1.90;99.90
10129;DHT22;5104;50.720;7.044;2023-12-07T04:30:32;1.90;99.90
10129;DHT22;5104;50.720;7.044;2023-12-07T04:32:59;1.90;99.90
10129;DHT22;5104;50.720;7.044;2023-12-07T04:35:27;1.90;99.90
10129;DHT22;5104;50.720;7.044;2023-12-07T04:37:54;1.90;99.90
10129;DHT22;5104;50.720;7.044;2023-12-07T04:40:21;1.90;99.90
10129;DHT22;5104;50.720;7.044;2023-12-07T04:42:48;1.90;99.90
10129;DHT22;5104;50.720;7.044;2023-12-07T04:45:16;1.90;99.90
10129;DHT22;5104;50.720;7.044;2023-12-07T04:47:43;1.90;99.90
10129;DHT22;5104;50.720;7.044;2023-12-07T04:50:10;1.90;99.90
10129;DHT22;5104;50.720;7.044;2023-12-07T04:52:38;1.90;99.90
10129;DHT22;5104;50.720;7.044;2023-12-07T04:55:06;1.90;99.90
10129;DHT22;5104;50.720;7.044;2023-12-07T04:57:33;1.80;99.90
10129;DHT22;5104;50.720;7.044;2023-12-07T05:00:00;1.90;99.90
10129;DHT22;5104;50.720;7.044;2023-12-07T05:02:36;1.90;99.90
10129;DHT22;5104;50.720;7.044;2023-12-07T05:05:03;1.90;99.90
10129;DHT22;5104;50.720;7.044;2023-12-07T05:07:30;1.80;99.90
10129;DHT22;5104;50.720;7.044;2023-12-07T05:09:57;1.80;99.90
10129;DHT22;5104;50.720;7.044;2023-12-07T05:12:24;1.70;99.90
10129;DHT22;5104;50.720;7.044;2023-12-07T05:14:51;1.60;99.90
10129;DHT22;5104;50.720;7.044;2023-12-07T05:17:18;1.60;99.90
10129;DHT22;5104;50.720;7.044;2023-12-07T05:19:46;1.50;99.90
10129;DHT22;5104;50.720;7.044;2023-12-07T05:22:14;1.40;99.90
10129;DHT22;5104;50.720;7.044;2023-12-07T05:24:41;1.40;99.90
10129;DHT22;5104;50.720;7.044;2023-12-07T05:27:08;1.40;99.90
10129;DHT22;5104;50.720;7.044;2023-12-07T05:29:35;1.40;99.90
10129;DHT22;5104;50.720;7.044;2023-12-07T05:32:02;1.30;99.90
10129;DHT22;5104;50.720;7.044;2023-12-07T05:34:29;1.20;99.90
10129;DHT22;5104;50.720;7.044;2023-12-07T05:36:57;1.10;99.90
10129;DHT22;5104;50.720;7.044;2023-12-07T05:39:24;0.90;99.90
10129;DHT22;5104;50.720;7.044;2023-12-07T05:41:51;0.90;99.90
10129;DHT22;5104;50.720;7.044;2023-12-07T05:44:19;0.80;99.90
10129;DHT22;5104;50.720;7.044;2023-12-07T05:46:48;0.80;99.90
10129;DHT22;5104;50.720;7.044;2023-12-07T05:49:15;0.70;99.90
10129;DHT22;5104;50.720;7.044;2023-12-07T05:51:42;0.70;99.90
10129;DHT22;5104;50.720;7.044;2023-12-07T05:54:10;0.70;99.90
10129;DHT22;5104;50.720;7.044;2023-12-07T05:56:37;0.70;99.90
10129;DHT22;5104;50.720;7.044;2023-12-07T05:59:04;0.70;99.90
10129;DHT22;5104;50.720;7.044;2023-12-07T06:01:31;0.70;99.90
10129;DHT22;5104;50.720;7.044;2023-12-07T06:03:58;0.70;99.90
10129;DHT22;5104;50.720;7.044;2023-12-07T06:06:25;0.70;99.90
10129;DHT22;5104;50.720;7.044;2023-12-07T06:08:52;0.80;99.90
10129;DHT22;5104;50.720;7.044;2023-12-07T06:11:20;0.80;99.90
10129;DHT22;5104;50.720;7.044;2023-12-07T06:13:47;0.70;99.90
10129;DHT22;5104;50.720;7.044;2023-12-07T06:16:14;0.60;99.90
10129;DHT22;5104;50.720;7.044;2023-12-07T06:18:43;0.60;99.90
10129;DHT22;5104;50.720;7.044;2023-12-07T06:21:09;0.60;99.90
10129;DHT22;5104;50.720;7.044;2023-12-07T06:23:38;0.50;99.90
10129;DHT22;5104;50.720;7.044;2023-12-07T06:26:05;0.50;99.90
10129;DHT22;5104;50.720;7.044;2023-12-07T06:28:34;0.50;99.90
10129;DHT22;5104;50.720;7.044;2023-12-07T06:31:05;0.50;99.90
10129;DHT22;5104;50.720;7.044;2023-12-07T06:33:32;0.60;99.90
10129;DHT22;5104;50.720;7.044;2023-12-07T06:36:00;0.50;99.90
10129;DHT22;5104;50.720;7.044;2023-12-07T06:38:28;0.50;99.90
10129;DHT22;5104;50.720;7.044;2023-12-07T06:40:56;0.60;99.90
10129;DHT22;5104;50.720;7.044;2023-12-07T06:43:23;0.60;99.90
10129;DHT22;5104;50.720;7.044;2023-12-07T06:45:51;0.50;99.90
10129;DHT22;5104;50.720;7.044;2023-12-07T06:48:18;0.50;99.90
10129;DHT22;5104;50.720;7.044;2023-12-07T06:50:45;0.50;99.90
10129;DHT22;5104;50.720;7.044;2023-12-07T06:53:13;0.50;99.90
10129;DHT22;5104;50.720;7.044;2023-12-07T06:55:41;0.40;99.90
10129;DHT22;5104;50.720;7.044;2023-12-07T06:58:09;0.40;99.90
10129;DHT22;5104;50.720;7.044;2023-12-07T07:00:36;0.40;99.90
10129;DHT22;5104;50.720;7.044;2023-12-07T07:03:05;0.30;99.90
10129;DHT22;5104;50.720;7.044;2023-12-07T07:05:32;0.30;99.90
10129;DHT22;5104;50.720;7.044;2023-12-07T07:07:59;0.30;99.90
10129;DHT22;5104;50.720;7.044;2023-12-07T07:10:26;0.30;99.90
10129;DHT22;5104;50.720;7.044;2023-12-07T07:12:53;0.30;99.90
10129;DHT22;5104;50.720;7.044;2023-12-07T07:15:20;0.30;99.90
10129;DHT22;5104;50.720;7.044;2023-12-07T07:17:48;0.30;99.90
10129;DHT22;5104;50.720;7.044;2023-12-07T07:20:20;0.20;99.90
10129;DHT22;5104;50.720;7.044;2023-12-07T07:22:47;0.20;99.90
10129;DHT22;5104;50.720;7.044;2023-12-07T07:25:14;0.30;99.90
10129;DHT22;5104;50.720;7.044;2023-12-07T07:27:45;0.20;99.90
10129;DHT22;5104;50.720;7.044;2023-12-07T07:30:13;0.30;99.90
10129;DHT22;5104;50.720;7.044;2023-12-07T07:32:40;0.30;99.90
10129;DHT22;5104;50.720;7.044;2023-12-07T07:35:07;0.20;99.90
10129;DHT22;5104;50.720;7.044;2023-12-07T07:37:38;0.20;99.90
10129;DHT22;5104;50.720;7.044;2023-12-07T07:40:07;0.30;99.90
10129;DHT22;5104;50.720;7.044;2023-12-07T07:42:37;0.20;99.90
10129;DHT22;5104;50.720;7.044;2023-12-07T07:45:05;0.20;99.90
10129;DHT22;5104;50.720;7.044;2023-12-07T07:47:32;0.30;99.90
10129;DHT22;5104;50.720;7.044;2023-12-07T07:49:59;0.30;99.90
10129;DHT22;5104;50.720;7.044;2023-12-07T07:52:32;0.40;99.90
10129;DHT22;5104;50.720;7.044;2023-12-07T07:55:00;0.40;99.90
10129;DHT22;5104;50.720;7.044;2023-12-07T07:57:28;0.50;99.90
10129;DHT22;5104;50.720;7.044;2023-12-07T07:59:56;0.50;99.90
10129;DHT22;5104;50.720;7.044;2023-12-07T08:02:23;0.50;99.90
10129;DHT22;5104;50.720;7.044;2023-12-07T08:04:49;0.60;99.90
10129;DHT22;5104;50.720;7.044;2023-12-07T08:07:17;0.60;99.90
10129;DHT22;5104;50.720;7.044;2023-12-07T08:09:44;0.70;99.90
10129;DHT22;5104;50.720;7.044;2023-12-07T08:12:12;0.70;99.90
10129;DHT22;5104;50.720;7.044;2023-12-07T08:14:39;0.70;99.90
10129;DHT22;5104;50.720;7.044;2023-12-07T08:17:09;0.70;99.90
10129;DHT22;5104;50.720;7.044;2023-12-07T08:19:36;0.80;99.90
10129;DHT22;5104;50.720;7.044;2023-12-07T08:22:03;0.90;99.90
10129;DHT22;5104;50.720;7.044;2023-12-07T08:24:30;0.90;99.90
10129;DHT22;5104;50.720;7.044;2023-12-07T08:26:57;0.90;99.90
10129;DHT22;5104;50.720;7.044;2023-12-07T08:29:25;1.00;99.90
10129;DHT22;5104;50.720;7.044;2023-12-07T08:31:52;1.10;99.90
10129;DHT22;5104;50.720;7.044;2023-12-07T08:34:19;1.00;99.90
10129;DHT22;5104;50.720;7.044;2023-12-07T08:36:46;1.20;99.90
10129;DHT22;5104;50.720;7.044;2023-12-07T08:39:13;1.20;99.90
10129;DHT22;5104;50.720;7.044;2023-12-07T08:41:40;1.30;99.90
10129;DHT22;5104;50.720;7.044;2023-12-07T08:44:07;1.40;99.90
10129;DHT22;5104;50.720;7.044;2023-12-07T08:46:35;1.40;99.90
10129;DHT22;5104;50.720;7.044;2023-12-07T08:49:02;1.40;99.90
10129;DHT22;5104;50.720;7.044;2023-12-07T08:51:29;1.40;99.90
10129;DHT22;5104;50.720;7.044;2023-12-07T08:53:56;1.50;99.90
10129;DHT22;5104;50.720;7.044;2023-12-07T08:56:23;1.60;99.90
10129;DHT22;5104;50.720;7.044;2023-12-07T08:58:51;1.60;99.90
10129;DHT22;5104;50.720;7.044;2023-12-07T09:01:18;1.70;99.90
10129;DHT22;5104;50.720;7.044;2023-12-07T09:03:46;1.80;99.90
10129;DHT22;5104;50.720;7.044;2023-12-07T09:06:13;1.80;99.90
10129;DHT22;5104;50.720;7.044;2023-12-07T09:08:39;1.90;99.90
10129;DHT22;5104;50.720;7.044;2023-12-07T09:11:06;1.90;99.90
10129;DHT22;5104;50.720;7.044;2023-12-07T09:13:33;2.00;99.90
10129;DHT22;5104;50.720;7.044;2023-12-07T09:16:00;2.00;99.90
10129;DHT22;5104;50.720;7.044;2023-12-07T09:18:27;2.00;99.90
10129;DHT22;5104;50.720;7.044;2023-12-07T09:20:55;2.00;99.90
10129;DHT22;5104;50.720;7.044;2023-12-07T09:23:22;2.00;99.90
10129;DHT22;5104;50.720;7.044;2023-12-07T09:25:49;2.00;99.90
10129;DHT22;5104;50.720;7.044;2023-12-07T09:28:16;2.10;99.90
10129;DHT22;5104;50.720;7.044;2023-12-07T09:30:43;2.10;99.90
10129;DHT22;5104;50.720;7.044;2023-12-07T09:33:10;2.20;99.90
10129;DHT22;5104;50.720;7.044;2023-12-07T09:35:38;2.20;99.90
10129;DHT22;5104;50.720;7.044;2023-12-07T09:38:06;2.20;99.90
10129;DHT22;5104;50.720;7.044;2023-12-07T09:40:33;2.30;99.90
10129;DHT22;5104;50.720;7.044;2023-12-07T09:43:01;2.40;99.90
10129;DHT22;5104;50.720;7.044;2023-12-07T09:45:27;2.40;99.90
10129;DHT22;5104;50.720;7.044;2023-12-07T09:47:55;2.50;99.90
10129;DHT22;5104;50.720;7.044;2023-12-07T09:50:23;2.50;99.90
10129;DHT22;5104;50.720;7.044;2023-12-07T09:52:51;2.50;99.90
10129;DHT22;5104;50.720;7.044;2023-12-07T09:55:19;2.60;99.90
10129;DHT22;5104;50.720;7.044;2023-12-07T09:57:48;2.60;99.90
10129;DHT22;5104;50.720;7.044;2023-12-07T10:00:16;2.60;99.90
10129;DHT22;5104;50.720;7.044;2023-12-07T10:02:45;2.70;99.90
10129;DHT22;5104;50.720;7.044;2023-12-07T10:05:13;2.60;99.90
10129;DHT22;5104;50.720;7.044;2023-12-07T10:07:42;2.60;99.90
10129;DHT22;5104;50.720;7.044;2023-12-07T10:10:10;2.70;99.90
10129;DHT22;5104;50.720;7.044;2023-12-07T10:12:47;2.80;99.90
10129;DHT22;5104;50.720;7.044;2023-12-07T10:15:15;2.90;99.90
10129;DHT22;5104;50.720;7.044;2023-12-07T10:17:49;2.90;99.90
10129;DHT22;5104;50.720;7.044;2023-12-07T10:20:17;3.00;99.90
10129;DHT22;5104;50.720;7.044;2023-12-07T10:22:45;3.10;99.90
10129;DHT22;5104;50.720;7.044;2023-12-07T10:25:12;3.10;99.90
10129;DHT22;5104;50.720;7.044;2023-12-07T10:27:41;3.40;99.90
10129;DHT22;5104;50.720;7.044;2023-12-07T10:30:11;3.40;99.90
10129;DHT22;5104;50.720;7.044;2023-12-07T10:32:39;3.30;99.90
10129;DHT22;5104;50.720;7.044;2023-12-07T10:35:09;3.40;99.90
10129;DHT22;5104;50.720;7.044;2023-12-07T10:37:36;3.30;99.90
10129;DHT22;5104;50.720;7.044;2023-12-07T10:40:04;3.30;99.90
10129;DHT22;5104;50.720;7.044;2023-12-07T10:42:34;3.30;99.90
10129;DHT22;5104;50.720;7.044;2023-12-07T10:45:05;3.20;99.90
10129;DHT22;5104;50.720;7.044;2023-12-07T10:47:36;3.10;99.90
10129;DHT22;5104;50.720;7.044;2023-12-07T10:50:06;3.10;99.90
10129;DHT22;5104;50.720;7.044;2023-12-07T10:52:37;3.00;99.90
10129;DHT22;5104;50.720;7.044;2023-12-07T10:55:10;3.10;99.90
10129;DHT22;5104;50.720;7.044;2023-12-07T10:57:40;3.10;99.90
10129;DHT22;5104;50.720;7.044;2023-12-07T11:00:07;3.10;99.90
10129;DHT22;5104;50.720;7.044;2023-12-07T11:02:38;3.30;99.90
10129;DHT22;5104;50.720;7.044;2023-12-07T11:05:07;3.40;99.90
10129;DHT22;5104;50.720;7.044;2023-12-07T11:07:42;3.50;99.90
10129;DHT22;5104;50.720;7.044;2023-12-07T11:10:15;3.50;99.90
10129;DHT22;5104;50.720;7.044;2023-12-07T11:12:49;3.70;99.90
10129;DHT22;5104;50.720;7.044;2023-12-07T11:15:18;3.70;99.90
10129;DHT22;5104;50.720;7.044;2023-12-07T11:17:51;3.50;99.90
10129;DHT22;5104;50.720;7.044;2023-12-07T11:20:20;3.50;99.90
10129;DHT22;5104;50.720;7.044;2023-12-07T11:22:48;3.50;99.90
10129;DHT22;5104;50.720;7.044;2023-12-07T11:25:16;3.50;99.90
10129;DHT22;5104;50.720;7.044;2023-12-07T11:27:46;3.60;99.90
10129;DHT22;5104;50.720;7.044;2023-12-07T11:30:16;3.70;99.90
10129;DHT22;5104;50.720;7.044;2023-12-07T11:32:43;3.70;99.90
10129;DHT22;5104;50.720;7.044;2023-12-07T11:35:15;3.80;99.90
10129;DHT22;5104;50.720;7.044;2023-12-07T11:38:02;3.90;99.90
10129;DHT22;5104;50.720;7.044;2023-12-07T11:40:32;4.00;99.90
10129;DHT22;5104;50.720;7.044;2023-12-07T11:43:00;4.10;99.90
10129;DHT22;5104;50.720;7.044;2023-12-07T11:45:40;4.10;99.90
10129;DHT22;5104;50.720;7.044;2023-12-07T11:48:11;4.00;99.90
10129;DHT22;5104;50.720;7.044;2023-12-07T11:50:59;3.80;99.90
10129;DHT22;5104;50.720;7.044;2023-12-07T11:53:27;3.70;99.90
10129;DHT22;5104;50.720;7.044;2023-12-07T11:55:55;3.70;99.90
10129;DHT22;5104;50.720;7.044;2023-12-07T11:58:23;3.80;99.90
10129;DHT22;5104;50.720;7.044;2023-12-07T12:00:51;3.90;99.90
10129;DHT22;5104;50.720;7.044;2023-12-07T12:03:18;3.80;99.90
10129;DHT22;5104;50.720;7.044;2023-12-07T12:05:46;3.80;99.90
10129;DHT22;5104;50.720;7.044;2023-12-07T12:08:15;3.80;99.90
10129;DHT22;5104;50.720;7.044;2023-12-07T12:10:43;3.90;99.90
10129;DHT22;5104;50.720;7.044;2023-12-07T12:13:10;3.90;99.90
10129;DHT22;5104;50.720;7.044;2023-12-07T12:15:37;3.80;99.90
10129;DHT22;5104;50.720;7.044;2023-12-07T12:18:05;3.80;99.90
10129;DHT22;5104;50.720;7.044;2023-12-07T12:20:32;3.80;99.90
10129;DHT22;5104;50.720;7.044;2023-12-07T12:22:59;3.90;99.90
10129;DHT22;5104;50.720;7.044;2023-12-07T12:25:30;3.90;99.90
10129;DHT22;5104;50.720;7.044;2023-12-07T12:27:58;3.80;99.90
10129;DHT22;5104;50.720;7.044;2023-12-07T12:30:27;3.80;99.90
10129;DHT22;5104;50.720;7.044;2023-12-07T12:32:54;3.80;99.90
10129;DHT22;5104;50.720;7.044;2023-12-07T12:35:21;3.80;99.90
10129;DHT22;5104;50.720;7.044;2023-12-07T12:37:49;3.90;99.90
10129;DHT22;5104;50.720;7.044;2023-12-07T12:40:18;3.70;99.90
10129;DHT22;5104;50.720;7.044;2023-12-07T12:42:47;3.70;99.90
10129;DHT22;5104;50.720;7.044;2023-12-07T12:45:15;3.60;99.90
10129;DHT22;5104;50.720;7.044;2023-12-07T12:47:44;3.60;99.90
10129;DHT22;5104;50.720;7.044;2023-12-07T12:50:12;3.60;99.90
10129;DHT22;5104;50.720;7.044;2023-12-07T12:52:40;3.70;99.90
10129;DHT22;5104;50.720;7.044;2023-12-07T12:55:08;3.70;99.90
10129;DHT22;5104;50.720;7.044;2023-12-07T12:57:36;3.60;99.90
10129;DHT22;5104;50.720;7.044;2023-12-07T13:00:06;3.70;99.90
10129;DHT22;5104;50.720;7.044;2023-12-07T13:02:33;3.70;99.90
10129;DHT22;5104;50.720;7.044;2023-12-07T13:05:00;3.80;99.90
10129;DHT22;5104;50.720;7.044;2023-12-07T13:07:28;3.60;99.90
10129;DHT22;5104;50.720;7.044;2023-12-07T13:09:54;3.50;99.90
10129;DHT22;5104;50.720;7.044;2023-12-07T13:12:21;3.50;99.90
10129;DHT22;5104;50.720;7.044;2023-12-07T13:14:49;3.50;99.90
10129;DHT22;5104;50.720;7.044;2023-12-07T13:17:17;3.50;99.90
10129;DHT22;5104;50.720;7.044;2023-12-07T13:19:44;3.60;99.90
10129;DHT22;5104;50.720;7.044;2023-12-07T13:22:11;3.50;99.90
10129;DHT22;5104;50.720;7.044;2023-12-07T13:24:38;3.40;99.90
10129;DHT22;5104;50.720;7.044;2023-12-07T13:27:05;3.50;99.90
10129;DHT22;5104;50.720;7.044;2023-12-07T13:29:32;3.40;99.90
10129;DHT22;5104;50.720;7.044;2023-12-07T13:31:59;3.40;99.90
10129;DHT22;5104;50.720;7.044;2023-12-07T13:34:27;3.40;99.90
10129;DHT22;5104;50.720;7.044;2023-12-07T13:36:54;3.40;99.90
10129;DHT22;5104;50.720;7.044;2023-12-07T13:39:22;3.50;99.90
10129;DHT22;5104;50.720;7.044;2023-12-07T13:41:49;3.50;99.90
10129;DHT22;5104;50.720;7.044;2023-12-07T13:44:17;3.60;99.90
10129;DHT22;5104;50.720;7.044;2023-12-07T13:46:44;3.60;99.90
10129;DHT22;5104;50.720;7.044;2023-12-07T13:49:11;3.60;99.90
10129;DHT22;5104;50.720;7.044;2023-12-07T13:51:41;3.60;99.90
10129;DHT22;5104;50.720;7.044;2023-12-07T13:54:08;3.50;99.90
10129;DHT22;5104;50.720;7.044;2023-12-07T13:56:36;3.50;99.90
10129;DHT22;5104;50.720;7.044;2023-12-07T13:59:03;3.40;99.90
10129;DHT22;5104;50.720;7.044;2023-12-07T14:01:33;3.30;99.90
10129;DHT22;5104;50.720;7.044;2023-12-07T14:04:00;3.30;99.90
10129;DHT22;5104;50.720;7.044;2023-12-07T14:06:27;3.30;99.90
10129;DHT22;5104;50.720;7.044;2023-12-07T14:08:55;3.20;99.90
10129;DHT22;5104;50.720;7.044;2023-12-07T14:11:22;3.10;99.90
10129;DHT22;5104;50.720;7.044;2023-12-07T14:13:49;3.10;99.90
10129;DHT22;5104;50.720;7.044;2023-12-07T14:16:19;3.10;99.90
10129;DHT22;5104;50.720;7.044;2023-12-07T14:18:46;3.10;99.90
10129;DHT22;5104;50.720;7.044;2023-12-07T14:21:13;3.10;99.90
10129;DHT22;5104;50.720;7.044;2023-12-07T14:23:45;3.10;99.90
10129;DHT22;5104;50.720;7.044;2023-12-07T14:26:13;3.00;99.90
10129;DHT22;5104;50.720;7.044;2023-12-07T14:28:40;3.00;99.90
10129;DHT22;5104;50.720;7.044;2023-12-07T14:31:07;2.90;99.90
10129;DHT22;5104;50.720;7.044;2023-12-07T14:33:40;2.90;99.90
10129;DHT22;5104;50.720;7.044;2023-12-07T14:36:09;2.90;99.90
10129;DHT22;5104;50.720;7.044;2023-12-07T14:38:36;2.80;99.90
10129;DHT22;5104;50.720;7.044;2023-12-07T14:41:04;2.90;99.90
10129;DHT22;5104;50.720;7.044;2023-12-07T14:43:32;2.90;99.90
10129;DHT22;5104;50.720;7.044;2023-12-07T14:45:59;2.80;99.90
10129;DHT22;5104;50.720;7.044;2023-12-07T14:48:27;2.80;99.90
10129;DHT22;5104;50.720;7.044;2023-12-07T14:50:54;2.70;99.90
10129;DHT22;5104;50.720;7.044;2023-12-07T14:53:21;2.70;99.90
10129;DHT22;5104;50.720;7.044;2023-12-07T14:55:50;2.70;99.90
10129;DHT22;5104;50.720;7.044;2023-12-07T14:58:18;2.70;99.90
10129;DHT22;5104;50.720;7.044;2023-12-07T15:00:46;2.70;99.90
10129;DHT22;5104;50.720;7.044;2023-12-07T15:03:13;2.70;99.90
10129;DHT22;5104;50.720;7.044;2023-12-07T15:05:40;2.60;99.90
10129;DHT22;5104;50.720;7.044;2023-12-07T15:08:07;2.60;99.90
10129;DHT22;5104;50.720;7.044;2023-12-07T15:10:34;2.60;99.90
10129;DHT22;5104;50.720;7.044;2023-12-07T15:13:01;2.60;99.90
10129;DHT22;5104;50.720;7.044;2023-12-07T15:15:28;2.60;99.90
10129;DHT22;5104;50.720;7.044;2023-12-07T15:17:57;2.60;99.90
10129;DHT22;5104;50.720;7.044;2023-12-07T15:20:23;2.60;99.90
10129;DHT22;5104;50.720;7.044;2023-12-07T15:22:50;2.50;99.90
10129;DHT22;5104;50.720;7.044;2023-12-07T15:25:17;2.40;99.90
10129;DHT22;5104;50.720;7.044;2023-12-07T15:27:44;2.40;99.90
10129;DHT22;5104;50.720;7.044;2023-12-07T15:30:13;2.40;99.90
10129;DHT22;5104;50.720;7.044;2023-12-07T15:32:40;2.40;99.90
10129;DHT22;5104;50.720;7.044;2023-12-07T15:35:10;2.30;99.90
10129;DHT22;5104;50.720;7.044;2023-12-07T15:37:36;2.30;99.90
10129;DHT22;5104;50.720;7.044;2023-12-07T15:40:04;2.40;99.90
10129;DHT22;5104;50.720;7.044;2023-12-07T15:42:36;2.40;99.90
10129;DHT22;5104;50.720;7.044;2023-12-07T15:45:04;2.30;99.90
10129;DHT22;5104;50.720;7.044;2023-12-07T15:47:31;2.40;99.90
10129;DHT22;5104;50.720;7.044;2023-12-07T15:49:58;2.40;99.90
10129;DHT22;5104;50.720;7.044;2023-12-07T15:52:26;2.40;99.90
10129;DHT22;5104;50.720;7.044;2023-12-07T15:54:53;2.40;99.90
10129;DHT22;5104;50.720;7.044;2023-12-07T15:57:20;2.40;99.90
10129;DHT22;5104;50.720;7.044;2023-12-07T15:59:47;2.30;99.90
10129;DHT22;5104;50.720;7.044;2023-12-07T16:02:14;2.30;99.90
10129;DHT22;5104;50.720;7.044;2023-12-07T16:04:42;2.30;99.90
10129;DHT22;5104;50.720;7.044;2023-12-07T16:07:08;2.30;99.90